createdAt,value
2023-04-16T00:00:09.383Z,100464.51
2023-04-16T00:02:41.525Z,100463.94
2023-04-16T00:05:09.655Z,100467.21
2023-04-16T00:07:37.706Z,100470.71
2023-04-16T00:10:06.701Z,100470.77
2023-04-16T00:12:35.247Z,100468.48
2023-04-16T00:15:03.482Z,100473.52
2023-04-16T00:17:31.552Z,100474.67
2023-04-16T00:19:59.535Z,100473.63
2023-04-16T00:22:27.448Z,100475.39
2023-04-16T00:24:55.485Z,100472.39
2023-04-16T00:27:23.461Z,100473.39
2023-04-16T00:29:51.360Z,100475.11
2023-04-16T00:32:19.493Z,100474.16
2023-04-16T00:34:47.908Z,100476.35
2023-04-16T00:37:15.867Z,100477.11
2023-04-16T00:39:43.844Z,100474.69
2023-04-16T00:42:11.940Z,100473.48
2023-04-16T00:44:39.968Z,100477.31
2023-04-16T00:47:09.825Z,100472.30
2023-04-16T00:49:37.684Z,100475.73
2023-04-16T00:52:05.694Z,100473.84
2023-04-16T00:54:33.787Z,100472.19
2023-04-16T00:57:02.288Z,100473.92
2023-04-16T00:59:32.760Z,100474.33
2023-04-16T01:02:00.994Z,100474.60
2023-04-16T01:04:30.998Z,100474.67
2023-04-16T01:06:59.126Z,100471.55
2023-04-16T01:09:27.024Z,100472.52
2023-04-16T01:11:54.892Z,100473.11
2023-04-16T01:14:23.056Z,100476.23
2023-04-16T01:16:50.921Z,100474.08
2023-04-16T01:19:18.763Z,100475.71
2023-04-16T01:21:46.989Z,100480.54
2023-04-16T01:24:14.990Z,100480.84
2023-04-16T01:26:43.362Z,100480.92
2023-04-16T01:29:11.442Z,100479.20
2023-04-16T01:31:39.556Z,100479.00
2023-04-16T01:34:27.025Z,100483.31
2023-04-16T01:36:55.143Z,100483.83
2023-04-16T01:39:23.045Z,100478.98
2023-04-16T01:41:51.059Z,100481.77
2023-04-16T01:44:19.352Z,100483.01
2023-04-16T01:46:47.717Z,100483.61
2023-04-16T01:49:15.944Z,100483.94
2023-04-16T01:51:44.861Z,100488.48
2023-04-16T01:54:12.778Z,100487.95
2023-04-16T01:56:42.004Z,100488.52
2023-04-16T01:59:10.026Z,100486.70
2023-04-16T02:01:40.493Z,100486.77
2023-04-16T02:04:08.613Z,100488.42
2023-04-16T02:06:36.494Z,100492.55
2023-04-16T02:09:04.566Z,100487.57
2023-04-16T02:11:34.299Z,100491.33
2023-04-16T02:14:02.371Z,100493.33
2023-04-16T02:16:31.302Z,100492.64
2023-04-16T02:19:31.341Z,100497.15
2023-04-16T02:22:01.449Z,100497.52
2023-04-16T02:24:29.508Z,100498.80
2023-04-16T02:26:58.293Z,100502.95
2023-04-16T02:29:26.576Z,100500.60
2023-04-16T02:32:00.427Z,100502.48
2023-04-16T02:34:29.264Z,100502.14
2023-04-16T02:36:58.414Z,100504.60
2023-04-16T02:39:26.568Z,100500.55
2023-04-16T02:41:54.735Z,100498.59
2023-04-16T02:44:22.698Z,100501.51
2023-04-16T02:46:50.781Z,100504.00
2023-04-16T02:49:18.808Z,100504.71
2023-04-16T02:51:46.808Z,100505.17
2023-04-16T02:54:14.633Z,100512.14
2023-04-16T02:56:42.698Z,100515.90
2023-04-16T02:59:11.087Z,100509.95
2023-04-16T03:01:39.579Z,100513.38
2023-04-16T03:04:07.740Z,100519.27
2023-04-16T03:06:36.096Z,100522.99
2023-04-16T03:09:04.024Z,100524.76
2023-04-16T03:11:32.024Z,100523.13
2023-04-16T03:14:00.826Z,100529.98
2023-04-16T03:16:28.858Z,100532.17
2023-04-16T03:18:56.633Z,100531.26
2023-04-16T03:21:24.565Z,100531.92
2023-04-16T03:23:53.938Z,100541.06
2023-04-16T03:26:23.131Z,100544.84
2023-04-16T03:28:52.534Z,100548.33
2023-04-16T03:31:20.731Z,100546.16
2023-04-16T03:33:48.705Z,100548.06
2023-04-16T03:36:16.642Z,100550.52
2023-04-16T03:38:44.539Z,100550.58
2023-04-16T03:41:13.771Z,100551.92
2023-04-16T03:43:41.620Z,100554.96
2023-04-16T03:46:11.311Z,100554.63
2023-04-16T03:48:39.934Z,100554.80
2023-04-16T03:51:08.190Z,100554.30
2023-04-16T03:53:36.244Z,100552.42
2023-04-16T03:56:04.481Z,100554.14
2023-04-16T03:58:32.380Z,100551.67
2023-04-16T04:01:00.574Z,100557.44
2023-04-16T04:03:28.686Z,100558.44
2023-04-16T04:05:57.057Z,100561.41
2023-04-16T04:08:31.347Z,100564.59
2023-04-16T04:10:59.467Z,100564.83
2023-04-16T04:13:27.614Z,100564.60
2023-04-16T04:16:00.579Z,100562.53
2023-04-16T04:18:28.981Z,100561.14
2023-04-16T04:20:57.266Z,100557.67
2023-04-16T04:23:27.749Z,100559.47
2023-04-16T04:25:55.655Z,100559.16
2023-04-16T04:28:23.833Z,100558.42
2023-04-16T04:30:52.006Z,100560.64
2023-04-16T04:33:20.480Z,100562.45
2023-04-16T04:35:48.400Z,100565.73
2023-04-16T04:38:19.953Z,100567.98
2023-04-16T04:40:48.866Z,100571.55
2023-04-16T04:43:16.919Z,100572.73
2023-04-16T04:45:46.362Z,100569.56
2023-04-16T04:48:14.952Z,100571.61
2023-04-16T04:50:45.040Z,100572.50
2023-04-16T04:53:14.942Z,100570.65
2023-04-16T04:55:43.033Z,100573.74
2023-04-16T04:58:11.120Z,100580.35
2023-04-16T05:00:39.122Z,100575.83
2023-04-16T05:03:10.604Z,100578.16
2023-04-16T05:05:41.668Z,100579.58
2023-04-16T05:08:09.832Z,100579.73
2023-04-16T05:10:38.099Z,100584.33
2023-04-16T05:13:06.782Z,100583.56
2023-04-16T05:15:34.861Z,100587.33
2023-04-16T05:18:03.220Z,100588.66
2023-04-16T05:20:31.442Z,100590.05
2023-04-16T05:22:59.374Z,100595.39
2023-04-16T05:25:27.520Z,100595.37
2023-04-16T05:27:55.839Z,100599.83
2023-04-16T05:30:23.762Z,100593.83
2023-04-16T05:32:53.266Z,100596.35
2023-04-16T05:35:22.190Z,100596.38
2023-04-16T05:37:50.897Z,100596.89
2023-04-16T05:40:19.046Z,100594.44
2023-04-16T05:42:47.537Z,100596.16
2023-04-16T05:45:15.794Z,100595.36
2023-04-16T05:47:44.916Z,100599.89
2023-04-16T05:50:12.974Z,100604.18
2023-04-16T05:52:41.882Z,100604.68
2023-04-16T05:55:10.165Z,100608.88
2023-04-16T05:57:38.195Z,100610.61
2023-04-16T06:00:08.841Z,100611.75
2023-04-16T06:02:46.007Z,100617.90
2023-04-16T06:05:14.262Z,100619.06
2023-04-16T06:07:42.571Z,100621.31
2023-04-16T06:10:10.980Z,100627.85
2023-04-16T06:12:39.252Z,100629.44
2023-04-16T06:15:08.753Z,100630.17
2023-04-16T06:17:37.007Z,100633.67
2023-04-16T06:20:05.587Z,100636.03
2023-04-16T06:22:34.409Z,100636.81
2023-04-16T06:25:02.517Z,100638.31
2023-04-16T06:27:31.349Z,100635.05
2023-04-16T06:29:59.344Z,100636.89
2023-04-16T06:32:27.322Z,100639.89
2023-04-16T06:34:56.436Z,100642.46
2023-04-16T06:37:24.321Z,100644.39
2023-04-16T06:39:52.210Z,100642.91
2023-04-16T06:42:20.380Z,100649.27
2023-04-16T06:44:48.284Z,100651.28
2023-04-16T06:47:16.395Z,100649.08
2023-04-16T06:49:44.419Z,100652.77
2023-04-16T06:52:12.965Z,100656.30
2023-04-16T06:54:41.001Z,100657.70
2023-04-16T06:57:09.010Z,100664.52
2023-04-16T06:59:39.657Z,100662.56
2023-04-16T07:02:11.407Z,100663.36
2023-04-16T07:04:40.025Z,100662.97
2023-04-16T07:07:08.812Z,100664.42
2023-04-16T07:09:37.758Z,100667.29
2023-04-16T07:12:07.282Z,100671.33
2023-04-16T07:14:35.468Z,100672.23
2023-04-16T07:17:03.542Z,100673.27
2023-04-16T07:19:32.864Z,100675.71
2023-04-16T07:22:01.066Z,100676.83
2023-04-16T07:24:29.522Z,100679.02
2023-04-16T07:26:57.617Z,100679.18
2023-04-16T07:29:25.743Z,100678.12
2023-04-16T07:31:53.946Z,100673.93
2023-04-16T07:34:21.934Z,100680.65
2023-04-16T07:36:49.914Z,100680.39
2023-04-16T07:39:18.156Z,100680.25
2023-04-16T07:41:46.408Z,100673.73
2023-04-16T07:44:14.232Z,100676.45
2023-04-16T07:46:47.385Z,100677.11
2023-04-16T07:49:15.760Z,100677.16
2023-04-16T07:51:43.987Z,100677.48
2023-04-16T07:54:11.964Z,100678.26
2023-04-16T07:56:41.012Z,100679.11
2023-04-16T08:01:42.822Z,100680.44
2023-04-16T08:04:10.968Z,100682.87
2023-04-16T08:06:39.989Z,100681.71
2023-04-16T08:09:08.108Z,100681.95
2023-04-16T08:11:36.427Z,100682.70
2023-04-16T08:14:04.484Z,100683.20
2023-04-16T08:16:32.391Z,100679.42
2023-04-16T08:19:01.259Z,100676.45
2023-04-16T08:21:30.782Z,100677.29
2023-04-16T08:23:58.924Z,100679.75
2023-04-16T08:26:27.230Z,100676.25
2023-04-16T08:28:55.169Z,100675.55
2023-04-16T08:31:23.195Z,100674.27
2023-04-16T08:33:51.155Z,100673.75
2023-04-16T08:36:19.136Z,100676.54
2023-04-16T08:38:52.348Z,100676.74
2023-04-16T08:41:20.556Z,100673.54
2023-04-16T08:43:48.663Z,100677.58
2023-04-16T08:46:17.457Z,100681.53
2023-04-16T08:48:45.391Z,100680.87
2023-04-16T08:51:13.463Z,100680.36
2023-04-16T08:54:05.533Z,100686.54
2023-04-16T08:56:33.479Z,100683.67
2023-04-16T08:59:05.337Z,100686.43
2023-04-16T09:01:34.578Z,100680.37
2023-04-16T09:04:03.152Z,100681.88
2023-04-16T09:06:31.582Z,100681.61
2023-04-16T09:08:59.785Z,100678.78
2023-04-16T09:11:27.687Z,100682.15
2023-04-16T09:13:55.559Z,100680.58
2023-04-16T09:16:23.610Z,100677.77
2023-04-16T09:18:52.116Z,100681.63
2023-04-16T09:21:21.076Z,100680.24
2023-04-16T09:23:53.416Z,100681.77
2023-04-16T09:26:21.974Z,100682.11
2023-04-16T09:28:51.555Z,100679.95
2023-04-16T09:31:20.035Z,100682.42
2023-04-16T09:34:04.575Z,100682.35
2023-04-16T09:36:32.871Z,100688.95
2023-04-16T09:39:01.223Z,100694.44
2023-04-16T09:41:30.961Z,100699.38
2023-04-16T09:44:04.169Z,100699.86
2023-04-16T09:46:35.303Z,100703.14
2023-04-16T09:49:16.769Z,100703.55
2023-04-16T09:51:45.804Z,100709.14
2023-04-16T09:54:13.900Z,100708.94
2023-04-16T09:56:43.118Z,100710.70
2023-04-16T09:59:21.002Z,100714.27
2023-04-16T10:01:49.983Z,100713.87
2023-04-16T10:04:18.259Z,100717.59
2023-04-16T10:07:13.421Z,100719.80
2023-04-16T10:09:42.458Z,100719.41
2023-04-16T10:12:12.889Z,100719.44
2023-04-16T10:14:41.361Z,100720.16
2023-04-16T10:17:09.807Z,100721.74
2023-04-16T10:19:37.946Z,100725.84
2023-04-16T10:22:08.975Z,100729.80
2023-04-16T10:24:37.192Z,100732.20
2023-04-16T10:27:05.400Z,100728.16
2023-04-16T10:29:34.161Z,100731.27
2023-04-16T10:32:02.075Z,100733.27
2023-04-16T10:34:31.353Z,100731.23
2023-04-16T10:36:59.302Z,100728.71
2023-04-16T10:39:28.507Z,100732.19
2023-04-16T10:42:10.099Z,100734.52
2023-04-16T10:44:38.145Z,100734.19
2023-04-16T10:47:13.523Z,100733.18
2023-04-16T10:49:42.505Z,100732.61
2023-04-16T10:52:17.420Z,100737.73
2023-04-16T10:54:46.822Z,100736.75
2023-04-16T10:57:19.398Z,100736.29
2023-04-16T10:59:48.775Z,100734.41
2023-04-16T11:02:20.129Z,100737.41
2023-04-16T11:04:48.976Z,100737.97
2023-04-16T11:07:21.802Z,100739.67
2023-04-16T11:09:56.361Z,100737.30
2023-04-16T11:12:38.600Z,100741.04
2023-04-16T11:15:12.965Z,100739.90
2023-04-16T11:17:52.681Z,100738.59
2023-04-16T11:20:21.891Z,100742.23
2023-04-16T11:22:50.679Z,100746.46
2023-04-16T11:25:26.953Z,100747.64
2023-04-16T11:27:55.152Z,100745.11
2023-04-16T11:30:31.620Z,100746.29
2023-04-16T11:33:02.198Z,100747.64
2023-04-16T11:35:30.296Z,100746.55
2023-04-16T11:37:58.847Z,100749.83
2023-04-16T11:40:30.040Z,100751.98
2023-04-16T11:43:04.101Z,100752.80
2023-04-16T11:45:32.393Z,100749.64
2023-04-16T11:48:00.428Z,100747.67
2023-04-16T11:50:28.563Z,100746.46
2023-04-16T11:52:57.733Z,100743.16
2023-04-16T11:55:25.779Z,100751.82
2023-04-16T11:57:53.886Z,100743.69
2023-04-16T12:00:23.101Z,100746.48
2023-04-16T12:02:53.684Z,100746.45
2023-04-16T12:05:32.045Z,100746.79
2023-04-16T12:08:04.298Z,100741.32
2023-04-16T12:10:36.768Z,100746.39
2023-04-16T12:13:14.931Z,100746.81
2023-04-16T12:15:49.415Z,100747.17
2023-04-16T12:18:22.552Z,100746.64
2023-04-16T12:20:53.197Z,100746.25
2023-04-16T12:23:31.138Z,100749.15
2023-04-16T12:26:03.145Z,100749.48
2023-04-16T12:28:33.108Z,100747.52
2023-04-16T12:31:02.464Z,100746.04
2023-04-16T12:33:31.283Z,100742.02
2023-04-16T12:35:59.330Z,100742.48
2023-04-16T12:38:28.634Z,100743.27
2023-04-16T12:40:57.805Z,100747.11
2023-04-16T12:43:26.493Z,100745.02
2023-04-16T12:45:55.337Z,100742.91
2023-04-16T12:48:23.431Z,100741.18
2023-04-16T12:50:53.905Z,100738.16
2023-04-16T12:53:22.530Z,100736.98
2023-04-16T12:55:50.958Z,100740.09
2023-04-16T12:58:19.254Z,100737.39
2023-04-16T13:00:47.373Z,100738.33
2023-04-16T13:03:16.169Z,100741.33
2023-04-16T13:05:44.606Z,100737.86
2023-04-16T13:08:12.792Z,100739.95
2023-04-16T13:10:41.030Z,100739.98
2023-04-16T13:13:09.484Z,100739.30
2023-04-16T13:15:37.966Z,100737.85
2023-04-16T13:18:06.245Z,100735.33
2023-04-16T13:20:34.267Z,100736.48
2023-04-16T13:23:05.245Z,100737.09
2023-04-16T13:25:34.050Z,100730.56
2023-04-16T13:28:02.173Z,100733.66
2023-04-16T13:30:31.703Z,100736.46
2023-04-16T13:32:59.855Z,100738.79
2023-04-16T13:35:27.881Z,100736.49
2023-04-16T13:37:56.004Z,100736.61
2023-04-16T13:40:24.004Z,100737.25
2023-04-16T13:42:52.141Z,100739.30
2023-04-16T13:45:22.866Z,100733.52
2023-04-16T13:47:50.991Z,100735.63
2023-04-16T13:50:19.570Z,100734.69
2023-04-16T13:52:48.019Z,100737.18
2023-04-16T13:55:19.125Z,100734.08
2023-04-16T13:57:47.600Z,100730.59
2023-04-16T14:00:16.141Z,100734.89
2023-04-16T14:02:45.964Z,100734.89
2023-04-16T14:05:14.259Z,100734.02
2023-04-16T14:07:43.161Z,100733.15
2023-04-16T14:10:11.710Z,100733.05
2023-04-16T14:12:40.373Z,100735.09
2023-04-16T14:15:09.815Z,100732.86
2023-04-16T14:17:38.580Z,100731.91
2023-04-16T14:20:07.412Z,100728.18
2023-04-16T14:22:35.896Z,100730.21
2023-04-16T14:25:04.394Z,100733.98
2023-04-16T14:27:33.146Z,100735.31
2023-04-16T14:30:01.070Z,100731.28
2023-04-16T14:32:30.718Z,100731.52
2023-04-16T14:34:59.142Z,100735.39
2023-04-16T14:37:27.442Z,100732.53
2023-04-16T14:39:55.607Z,100734.27
2023-04-16T14:42:24.699Z,100738.33
2023-04-16T14:44:53.196Z,100736.29
2023-04-16T14:47:21.239Z,100738.30
2023-04-16T14:49:49.267Z,100739.69
2023-04-16T14:52:17.287Z,100740.59
2023-04-16T14:54:45.619Z,100743.89
2023-04-16T14:57:14.388Z,100742.99
2023-04-16T14:59:42.498Z,100741.98
2023-04-16T15:02:10.794Z,100739.42
2023-04-16T15:04:38.947Z,100742.39
2023-04-16T15:07:07.064Z,100743.13
2023-04-16T15:09:35.069Z,100741.42
2023-04-16T15:12:04.319Z,100743.20
2023-04-16T15:14:32.442Z,100739.46
2023-04-16T15:17:00.478Z,100740.48
2023-04-16T15:19:29.050Z,100742.63
2023-04-16T15:21:57.039Z,100740.23
2023-04-16T15:24:25.065Z,100737.23
2023-04-16T15:26:52.973Z,100740.86
2023-04-16T15:29:21.199Z,100739.19
2023-04-16T15:31:49.035Z,100739.92
2023-04-16T15:34:16.929Z,100741.14
2023-04-16T15:36:46.324Z,100739.88
2023-04-16T15:39:14.475Z,100741.55
2023-04-16T15:41:57.573Z,100739.23
2023-04-16T15:44:30.249Z,100744.34
2023-04-16T15:46:58.534Z,100743.88
2023-04-16T15:49:26.598Z,100746.65
2023-04-16T15:51:55.237Z,100743.25
2023-04-16T15:54:23.629Z,100744.77
2023-04-16T15:56:51.743Z,100742.95
2023-04-16T15:59:19.729Z,100748.31
2023-04-16T16:01:48.559Z,100744.48
2023-04-16T16:04:18.860Z,100745.29
2023-04-16T16:06:47.072Z,100743.29
2023-04-16T16:09:15.137Z,100749.41
2023-04-16T16:11:44.273Z,100749.88
2023-04-16T16:14:15.354Z,100752.58
2023-04-16T16:16:44.255Z,100755.19
2023-04-16T16:19:12.616Z,100747.95
2023-04-16T16:21:41.030Z,100750.21
2023-04-16T16:24:09.461Z,100750.05
2023-04-16T16:26:37.661Z,100752.31
2023-04-16T16:29:05.937Z,100747.13
2023-04-16T16:31:34.227Z,100750.22
2023-04-16T16:34:02.560Z,100747.73
2023-04-16T16:36:32.386Z,100747.25
2023-04-16T16:39:00.603Z,100746.69
2023-04-16T16:41:30.783Z,100749.91
2023-04-16T16:43:59.132Z,100748.85
2023-04-16T16:46:27.578Z,100747.02
2023-04-16T16:48:55.543Z,100743.94
2023-04-16T16:51:23.729Z,100749.55
2023-04-16T16:53:52.198Z,100750.73
2023-04-16T16:56:21.589Z,100752.92
2023-04-16T16:58:49.468Z,100750.48
2023-04-16T17:01:18.187Z,100750.74
2023-04-16T17:03:46.446Z,100756.68
2023-04-16T17:06:14.557Z,100759.24
2023-04-16T17:08:43.114Z,100763.98
2023-04-16T17:11:11.009Z,100765.98
2023-04-16T17:13:39.698Z,100770.27
2023-04-16T17:16:08.051Z,100772.73
2023-04-16T17:18:36.208Z,100774.61
2023-04-16T17:21:04.205Z,100773.85
2023-04-16T17:23:32.174Z,100773.75
2023-04-16T17:26:00.166Z,100778.41
2023-04-16T17:28:28.156Z,100777.74
2023-04-16T17:30:57.083Z,100782.36
2023-04-16T17:33:25.175Z,100778.46
2023-04-16T17:35:53.730Z,100780.02
2023-04-16T17:38:24.290Z,100776.81
2023-04-16T17:40:52.572Z,100782.77
2023-04-16T17:43:21.589Z,100786.44
2023-04-16T17:45:49.750Z,100788.34
2023-04-16T17:48:18.413Z,100791.00
2023-04-16T17:50:47.238Z,100790.88
2023-04-16T17:53:17.395Z,100792.20
2023-04-16T17:55:54.579Z,100799.63
2023-04-16T17:58:26.303Z,100794.43
2023-04-16T18:00:54.252Z,100797.96
2023-04-16T18:03:23.069Z,100802.74
2023-04-16T18:05:51.612Z,100800.56
2023-04-16T18:08:23.558Z,100804.00
2023-04-16T18:10:51.986Z,100806.10
2023-04-16T18:13:25.935Z,100800.48
2023-04-16T18:15:54.158Z,100802.77
2023-04-16T18:18:22.316Z,100807.42
2023-04-16T18:20:50.842Z,100806.17
2023-04-16T18:23:19.780Z,100806.80
2023-04-16T18:25:48.873Z,100807.77
2023-04-16T18:28:17.894Z,100810.77
2023-04-16T18:30:46.166Z,100815.33
2023-04-16T18:35:45.263Z,100814.01
2023-04-16T18:38:16.195Z,100812.16
2023-04-16T18:40:44.066Z,100808.91
2023-04-16T18:43:13.365Z,100806.50
2023-04-16T18:45:41.739Z,100801.13
2023-04-16T18:48:09.581Z,100809.58
2023-04-16T18:50:37.800Z,100811.18
2023-04-16T18:53:06.094Z,100811.02
2023-04-16T18:55:34.564Z,100809.75
2023-04-16T18:58:02.535Z,100806.18
2023-04-16T19:00:30.693Z,100807.65
2023-04-16T19:02:58.735Z,100805.52
2023-04-16T19:05:26.783Z,100803.49
2023-04-16T19:07:55.073Z,100803.59
2023-04-16T19:10:23.434Z,100804.60
2023-04-16T19:12:51.418Z,100804.46
2023-04-16T19:15:19.816Z,100806.30
2023-04-16T19:17:47.823Z,100804.83
2023-04-16T19:20:15.901Z,100802.50
2023-04-16T19:22:44.497Z,100802.36
2023-04-16T19:25:12.474Z,100803.23
2023-04-16T19:27:41.546Z,100803.80
2023-04-16T19:30:09.891Z,100801.40
2023-04-16T19:32:40.675Z,100800.83
2023-04-16T19:35:09.248Z,100799.10
2023-04-16T19:37:37.147Z,100797.60
2023-04-16T19:40:06.443Z,100799.64
2023-04-16T19:42:34.594Z,100798.77
2023-04-16T19:45:03.369Z,100797.97
2023-04-16T19:47:31.528Z,100801.20
2023-04-16T19:49:59.671Z,100798.11
2023-04-16T19:52:27.809Z,100790.67
2023-04-16T19:54:55.896Z,100790.81
2023-04-16T19:57:23.960Z,100791.09
2023-04-16T19:59:53.539Z,100786.65
2023-04-16T20:02:23.241Z,100786.15
2023-04-16T20:04:53.017Z,100785.94
2023-04-16T20:07:21.127Z,100786.67
2023-04-16T20:09:49.073Z,100787.54
2023-04-16T20:12:17.021Z,100786.25
2023-04-16T20:14:44.959Z,100785.51
2023-04-16T20:17:17.873Z,100781.23
2023-04-16T20:19:49.653Z,100778.64
2023-04-16T20:22:18.906Z,100780.48
2023-04-16T20:24:47.874Z,100781.02
2023-04-16T20:27:19.576Z,100785.85
2023-04-16T20:29:47.874Z,100788.48
2023-04-16T20:32:15.896Z,100790.58
2023-04-16T20:34:43.772Z,100788.20
2023-04-16T20:37:11.902Z,100787.38
2023-04-16T20:39:40.197Z,100785.98
2023-04-16T20:42:12.000Z,100782.08
2023-04-16T20:44:41.346Z,100783.70
2023-04-16T20:47:11.772Z,100783.69
2023-04-16T20:49:40.340Z,100782.20
2023-04-16T20:52:08.366Z,100780.33
2023-04-16T20:54:36.321Z,100783.77
2023-04-16T20:57:05.073Z,100780.50
2023-04-16T20:59:33.271Z,100779.82
2023-04-16T21:02:01.617Z,100780.98
2023-04-16T21:04:30.025Z,100778.08
2023-04-16T21:06:59.364Z,100775.58
2023-04-16T21:09:27.326Z,100773.82
2023-04-16T21:11:55.484Z,100769.95
2023-04-16T21:14:23.458Z,100768.36
2023-04-16T21:16:51.428Z,100775.68
2023-04-16T21:19:19.408Z,100772.73
2023-04-16T21:21:47.343Z,100773.66
2023-04-16T21:24:15.574Z,100768.69
2023-04-16T21:26:43.507Z,100765.33
2023-04-16T21:29:11.880Z,100758.66
2023-04-16T21:31:39.961Z,100760.48
2023-04-16T21:34:08.332Z,100760.95
2023-04-16T21:36:36.356Z,100758.64
2023-04-16T21:39:04.206Z,100756.17
2023-04-16T21:41:32.254Z,100754.08
2023-04-16T21:44:00.318Z,100749.88
2023-04-16T21:46:28.949Z,100747.69
2023-04-16T21:48:56.967Z,100751.12
2023-04-16T21:51:29.804Z,100749.05
2023-04-16T21:53:57.726Z,100747.85
2023-04-16T21:56:26.057Z,100747.86
2023-04-16T21:58:53.998Z,100746.75
2023-04-16T22:01:22.047Z,100745.22
2023-04-16T22:03:52.335Z,100747.31
2023-04-16T22:06:20.797Z,100748.39
2023-04-16T22:08:50.020Z,100745.39
2023-04-16T22:11:18.331Z,100745.69
2023-04-16T22:13:47.860Z,100742.75
2023-04-16T22:16:15.886Z,100739.63
2023-04-16T22:18:45.187Z,100740.15
2023-04-16T22:21:13.122Z,100735.95
2023-04-16T22:23:41.070Z,100736.02
2023-04-16T22:26:09.202Z,100736.11
2023-04-16T22:28:37.265Z,100734.95
2023-04-16T22:31:05.160Z,100737.17
2023-04-16T22:33:33.248Z,100733.47
2023-04-16T22:36:03.584Z,100736.46
2023-04-16T22:38:31.608Z,100732.41
2023-04-16T22:40:59.771Z,100729.59
2023-04-16T22:43:27.850Z,100727.96
2023-04-16T22:46:06.791Z,100726.46
2023-04-16T22:48:36.514Z,100720.66
2023-04-16T22:51:05.501Z,100721.77
2023-04-16T22:53:33.697Z,100719.23
2023-04-16T22:56:01.872Z,100717.56
2023-04-16T22:58:30.048Z,100712.86
2023-04-16T23:00:59.613Z,100712.89
2023-04-16T23:03:28.776Z,100713.30
2023-04-16T23:05:56.956Z,100714.90
2023-04-16T23:08:24.874Z,100709.37
2023-04-16T23:10:53.441Z,100709.20
2023-04-16T23:13:21.784Z,100707.66
2023-04-16T23:15:49.650Z,100707.27
2023-04-16T23:18:17.592Z,100701.90
2023-04-16T23:20:45.550Z,100700.16
2023-04-16T23:23:13.614Z,100697.84
2023-04-16T23:25:41.626Z,100693.73
2023-04-16T23:28:09.560Z,100692.55
2023-04-16T23:30:37.528Z,100686.35
2023-04-16T23:33:05.626Z,100688.62
2023-04-16T23:35:33.535Z,100685.89
2023-04-16T23:38:01.553Z,100686.95
2023-04-16T23:40:29.774Z,100687.65
2023-04-16T23:42:57.754Z,100688.84
2023-04-16T23:45:25.907Z,100682.99
2023-04-16T23:47:54.078Z,100684.57
2023-04-16T23:50:22.007Z,100682.80
2023-04-16T23:52:50.364Z,100682.63
2023-04-16T23:55:18.211Z,100677.66
2023-04-16T23:57:46.373Z,100679.63
